Point Leamington, Canada
Current Conditions -  °F | °C
As of 9:10 PM on Wednesday 28 Jan 2015 (Local Time) from CYQX Reporting Station
Freezing Rain Freezing Rain  
Wind Chill: 27°   Ceiling: 200
Heat Index: 32°   Visibility: 0.12mi
Dew Point: 32°   Wind: 5mph
Humidity: 100%   Direction: 50°NE
Pressure: 29.72"   Gusts: NA
Location:  49.32°N, 55.4°W
Report Text: CYQX 290010Z 05004KT 1/8SM R03/2800V4500FT/U R13/3000V5500FT/D -FZRA FZFG OVC002 M00/M00 A2972 RMK FG7SF1 SLP072
Loading
Personal Weather Stations






























Interactive Weather Map New forecast layout! Learn more

10-Day Weather Forecast

Advertisements
Track Severe Weather on mobile